createdAt,value
2023-02-27T00:00:19.852Z,65.42
2023-02-27T00:01:19.852Z,70.25
2023-02-27T00:02:19.888Z,66.71
2023-02-27T00:03:19.838Z,65.90
2023-02-27T00:04:20.823Z,67.35
2023-02-27T00:05:19.831Z,66.55
2023-02-27T00:06:19.796Z,66.23
2023-02-27T00:07:19.801Z,67.35
2023-02-27T00:08:19.814Z,66.55
2023-02-27T00:09:19.769Z,64.61
2023-02-27T00:10:19.860Z,67.19
2023-02-27T00:11:19.752Z,65.58
2023-02-27T00:12:19.741Z,63.97
2023-02-27T00:13:19.811Z,65.26
2023-02-27T00:14:19.723Z,66.87
2023-02-27T00:15:19.718Z,64.94
2023-02-27T00:16:19.812Z,65.42
2023-02-27T00:17:19.696Z,65.90
2023-02-27T00:18:19.693Z,68.00
2023-02-27T00:19:19.677Z,65.58
2023-02-27T00:20:19.670Z,64.78
2023-02-27T00:21:19.654Z,64.45
2023-02-27T00:22:19.646Z,64.78
2023-02-27T00:23:19.648Z,69.61
2023-02-27T00:24:19.633Z,66.39
2023-02-27T00:25:19.618Z,63.81
2023-02-27T00:26:19.613Z,66.55
2023-02-27T00:27:19.606Z,65.74
2023-02-27T00:28:19.602Z,64.45
2023-02-27T00:29:19.585Z,63.81
2023-02-27T00:30:19.575Z,64.78
2023-02-27T00:31:20.017Z,64.78
2023-02-27T00:32:19.627Z,64.29
2023-02-27T00:33:19.557Z,65.26
2023-02-27T00:34:19.532Z,65.74
2023-02-27T00:35:20.552Z,65.42
2023-02-27T00:36:19.524Z,66.71
2023-02-27T00:37:19.507Z,63.81
2023-02-27T00:38:19.516Z,63.16
2023-02-27T00:39:19.490Z,63.97
2023-02-27T00:40:19.488Z,66.39
2023-02-27T00:41:19.489Z,64.61
2023-02-27T00:42:19.467Z,64.94
2023-02-27T00:43:19.470Z,66.71
2023-02-27T00:44:19.458Z,66.06
2023-02-27T00:45:19.439Z,65.58
2023-02-27T00:46:19.463Z,66.55
2023-02-27T00:47:19.424Z,66.06
2023-02-27T00:48:19.423Z,66.23
2023-02-27T00:49:19.404Z,64.94
2023-02-27T00:50:19.396Z,65.74
2023-02-27T00:51:19.386Z,65.58
2023-02-27T00:52:19.385Z,65.26
2023-02-27T00:53:19.402Z,65.10
2023-02-27T00:54:19.356Z,65.58
2023-02-27T00:55:19.353Z,66.06
2023-02-27T00:56:19.340Z,64.78
2023-02-27T00:57:19.355Z,64.61
2023-02-27T00:58:19.333Z,63.81
2023-02-27T00:59:19.311Z,65.74
2023-02-27T01:00:19.308Z,64.61
2023-02-27T01:01:19.377Z,64.13
2023-02-27T01:02:19.302Z,66.55
2023-02-27T01:03:19.286Z,64.29
2023-02-27T01:04:19.270Z,65.90
2023-02-27T01:05:19.261Z,65.10
2023-02-27T01:06:19.252Z,65.42
2023-02-27T01:07:19.242Z,63.65
2023-02-27T01:08:19.243Z,63.65
2023-02-27T01:09:19.226Z,64.94
2023-02-27T01:10:19.236Z,65.42
2023-02-27T01:11:19.207Z,65.10
2023-02-27T01:12:19.199Z,65.26
2023-02-27T01:13:19.201Z,65.58
2023-02-27T01:14:19.181Z,63.97
2023-02-27T01:15:19.178Z,65.58
2023-02-27T01:16:19.236Z,63.49
2023-02-27T01:17:19.159Z,63.33
2023-02-27T01:18:19.162Z,64.13
2023-02-27T01:19:19.132Z,62.84
2023-02-27T01:20:20.133Z,65.42
2023-02-27T01:21:19.119Z,66.55
2023-02-27T01:22:19.112Z,64.29
2023-02-27T01:23:19.121Z,63.49
2023-02-27T01:24:19.093Z,66.06
2023-02-27T01:25:19.088Z,62.68
2023-02-27T01:26:19.099Z,64.29
2023-02-27T01:27:19.067Z,63.00
2023-02-27T01:28:19.133Z,62.68
2023-02-27T01:29:19.049Z,66.06
2023-02-27T01:30:19.041Z,63.65
2023-02-27T01:31:19.077Z,64.13
2023-02-27T01:32:19.111Z,63.65
2023-02-27T01:33:19.025Z,65.58
2023-02-27T01:34:18.999Z,63.33
2023-02-27T01:35:18.991Z,64.78
2023-02-27T01:36:18.981Z,62.52
2023-02-27T01:37:18.970Z,65.42
2023-02-27T01:38:18.979Z,66.39
2023-02-27T01:39:18.952Z,64.13
2023-02-27T01:40:18.951Z,64.13
2023-02-27T01:41:18.933Z,65.26
2023-02-27T01:42:18.923Z,63.33
2023-02-27T01:43:18.923Z,64.29
2023-02-27T01:44:18.923Z,63.00
2023-02-27T01:45:18.895Z,62.36
2023-02-27T01:46:18.883Z,63.33
2023-02-27T01:47:18.880Z,63.65
2023-02-27T01:48:18.884Z,63.65
2023-02-27T01:49:18.862Z,63.65
2023-02-27T01:50:18.852Z,63.00
2023-02-27T01:51:18.854Z,64.61
2023-02-27T01:52:18.832Z,63.81
2023-02-27T01:53:18.839Z,62.36
2023-02-27T01:54:18.814Z,65.26
2023-02-27T01:55:18.809Z,62.68
2023-02-27T01:56:18.796Z,63.33
2023-02-27T01:57:18.788Z,63.16
2023-02-27T01:58:18.795Z,63.65
2023-02-27T01:59:18.781Z,64.13
2023-02-27T02:00:18.757Z,66.06
2023-02-27T02:01:18.776Z,64.13
2023-02-27T02:02:18.761Z,63.33
2023-02-27T02:03:18.744Z,63.16
2023-02-27T02:04:18.733Z,64.29
2023-02-27T02:05:18.705Z,63.97
2023-02-27T02:06:18.700Z,65.26
2023-02-27T02:07:18.690Z,63.65
2023-02-27T02:08:18.697Z,62.84
2023-02-27T02:09:18.701Z,63.81
2023-02-27T02:10:18.669Z,63.33
2023-02-27T02:11:18.658Z,63.33
2023-02-27T02:12:18.650Z,63.81
2023-02-27T02:13:18.647Z,63.33
2023-02-27T02:14:18.626Z,65.58
2023-02-27T02:15:18.680Z,63.49
2023-02-27T02:16:18.645Z,63.97
2023-02-27T02:17:19.607Z,66.71
2023-02-27T02:18:18.604Z,63.33
2023-02-27T02:19:18.996Z,64.29
2023-02-27T02:20:18.575Z,63.97
2023-02-27T02:21:18.576Z,65.26
2023-02-27T02:22:18.557Z,64.45
2023-02-27T02:23:18.552Z,65.26
2023-02-27T02:24:18.539Z,63.33
2023-02-27T02:25:18.528Z,63.33
2023-02-27T02:26:18.543Z,63.81
2023-02-27T02:27:18.508Z,64.13
2023-02-27T02:28:18.523Z,63.81
2023-02-27T02:29:18.494Z,64.29
2023-02-27T02:30:18.484Z,63.49
2023-02-27T02:31:18.553Z,63.16
2023-02-27T02:32:18.493Z,63.49
2023-02-27T02:33:18.462Z,64.61
2023-02-27T02:34:18.447Z,64.13
2023-02-27T02:35:18.430Z,65.58
2023-02-27T02:36:19.430Z,62.52
2023-02-27T02:37:18.423Z,63.33
2023-02-27T02:38:18.427Z,64.13
2023-02-27T02:39:18.413Z,63.97
2023-02-27T02:40:18.392Z,63.65
2023-02-27T02:41:18.382Z,62.04
2023-02-27T02:42:18.384Z,64.61
2023-02-27T02:43:18.381Z,64.78
2023-02-27T02:44:18.390Z,65.74
2023-02-27T02:45:18.350Z,66.23
2023-02-27T02:46:18.380Z,64.61
2023-02-27T02:47:18.334Z,64.78
2023-02-27T02:48:18.325Z,63.65
2023-02-27T02:49:18.330Z,64.13
2023-02-27T02:50:18.304Z,63.81
2023-02-27T02:51:18.295Z,63.65
2023-02-27T02:52:18.292Z,64.94
2023-02-27T02:53:18.281Z,67.35
2023-02-27T02:54:18.274Z,64.29
2023-02-27T02:55:18.264Z,63.97
2023-02-27T02:56:19.241Z,63.33
2023-02-27T02:57:18.233Z,62.52
2023-02-27T02:58:18.232Z,64.29
2023-02-27T02:59:18.243Z,61.71
2023-02-27T03:00:18.210Z,64.94
2023-02-27T03:01:18.242Z,63.33
2023-02-27T03:02:18.191Z,65.42
2023-02-27T03:03:18.180Z,63.81
2023-02-27T03:04:18.191Z,63.00
2023-02-27T03:05:18.164Z,64.29
2023-02-27T03:06:18.179Z,64.13
2023-02-27T03:07:18.176Z,64.29
2023-02-27T03:08:18.138Z,65.42
2023-02-27T03:09:18.147Z,65.74
2023-02-27T03:10:18.130Z,63.33
2023-02-27T03:11:18.113Z,65.42
2023-02-27T03:12:18.133Z,63.81
2023-02-27T03:13:18.138Z,64.45
2023-02-27T03:14:18.098Z,64.29
2023-02-27T03:15:18.082Z,63.97
2023-02-27T03:16:18.070Z,65.26
2023-02-27T03:17:18.074Z,65.26
2023-02-27T03:18:18.052Z,65.10
2023-02-27T03:19:18.056Z,64.13
2023-02-27T03:20:18.024Z,63.65
2023-02-27T03:21:18.020Z,64.45
2023-02-27T03:22:18.014Z,64.94
2023-02-27T03:23:17.999Z,64.94
2023-02-27T03:24:18.004Z,64.29
2023-02-27T03:25:17.973Z,66.71
2023-02-27T03:26:17.976Z,64.94
2023-02-27T03:27:18.969Z,66.39
2023-02-27T03:28:17.962Z,64.94
2023-02-27T03:29:17.954Z,66.23
2023-02-27T03:30:17.931Z,64.13
2023-02-27T03:31:18.013Z,63.81
2023-02-27T03:32:17.992Z,66.06
2023-02-27T03:33:17.903Z,64.13
2023-02-27T03:34:17.911Z,63.49
2023-02-27T03:35:17.903Z,64.94
2023-02-27T03:36:17.889Z,64.94
2023-02-27T03:37:17.865Z,63.49
2023-02-27T03:38:17.865Z,63.81
2023-02-27T03:39:17.861Z,64.29
2023-02-27T03:40:17.839Z,64.29
2023-02-27T03:41:17.832Z,63.33
2023-02-27T03:42:17.819Z,65.42
2023-02-27T03:43:17.814Z,65.90
2023-02-27T03:44:17.814Z,63.81
2023-02-27T03:45:17.798Z,64.29
2023-02-27T03:46:17.808Z,63.49
2023-02-27T03:47:17.780Z,65.90
2023-02-27T03:48:17.766Z,66.23
2023-02-27T03:49:17.769Z,63.97
2023-02-27T03:50:17.765Z,64.94
2023-02-27T03:51:17.747Z,64.45
2023-02-27T03:52:17.724Z,64.29
2023-02-27T03:53:17.723Z,64.78
2023-02-27T03:54:17.719Z,63.16
2023-02-27T03:55:17.721Z,63.16
2023-02-27T03:56:17.693Z,64.13
2023-02-27T03:57:17.685Z,63.81
2023-02-27T03:58:17.679Z,63.97
2023-02-27T03:59:17.679Z,64.13
2023-02-27T04:00:17.652Z,63.81
2023-02-27T04:01:17.650Z,62.20
2023-02-27T04:02:17.646Z,62.84
2023-02-27T04:03:17.640Z,64.94
2023-02-27T04:04:17.635Z,64.61
2023-02-27T04:05:17.613Z,66.23
2023-02-27T04:06:17.604Z,63.65
2023-02-27T04:07:17.588Z,63.81
2023-02-27T04:08:17.586Z,63.49
2023-02-27T04:09:17.592Z,63.81
2023-02-27T04:10:17.584Z,62.52
2023-02-27T04:11:17.554Z,63.49
2023-02-27T04:12:17.546Z,62.84
2023-02-27T04:13:17.556Z,63.49
2023-02-27T04:14:17.543Z,65.10
2023-02-27T04:15:17.516Z,65.90
2023-02-27T04:16:17.565Z,62.04
2023-02-27T04:17:17.506Z,66.71
2023-02-27T04:18:17.503Z,62.84
2023-02-27T04:19:17.497Z,62.36
2023-02-27T04:20:17.474Z,63.00
2023-02-27T04:21:17.470Z,65.58
2023-02-27T04:22:17.475Z,66.71
2023-02-27T04:23:17.444Z,65.10
2023-02-27T04:24:17.457Z,65.90
2023-02-27T04:25:17.435Z,63.97
2023-02-27T04:26:17.424Z,63.49
2023-02-27T04:27:17.426Z,65.42
2023-02-27T04:28:17.437Z,66.06
2023-02-27T04:29:17.414Z,67.19
2023-02-27T04:30:17.389Z,63.97
2023-02-27T04:31:17.470Z,63.33
2023-02-27T04:32:17.560Z,65.58
2023-02-27T04:33:17.365Z,65.10
2023-02-27T04:34:17.365Z,64.45
2023-02-27T04:35:17.350Z,66.23
2023-02-27T04:36:17.341Z,66.23
2023-02-27T04:37:17.325Z,66.55
2023-02-27T04:38:17.326Z,62.36
2023-02-27T04:39:17.322Z,64.78
2023-02-27T04:40:17.301Z,66.39
2023-02-27T04:41:17.296Z,63.00
2023-02-27T04:42:17.291Z,65.10
2023-02-27T04:43:17.280Z,63.81
2023-02-27T04:44:17.286Z,65.26
2023-02-27T04:45:17.265Z,66.55
2023-02-27T04:46:17.250Z,63.65
2023-02-27T04:47:17.447Z,65.10
2023-02-27T04:48:17.231Z,63.97
2023-02-27T04:49:17.233Z,65.42
2023-02-27T04:50:17.216Z,63.49
2023-02-27T04:51:17.205Z,66.87
2023-02-27T04:52:17.194Z,65.26
2023-02-27T04:53:17.192Z,63.81
2023-02-27T04:54:17.192Z,64.94
2023-02-27T04:55:17.175Z,65.42
2023-02-27T04:56:17.159Z,64.13
2023-02-27T04:57:17.157Z,67.68
2023-02-27T04:58:17.151Z,63.65
2023-02-27T04:59:17.153Z,67.19
2023-02-27T05:00:17.133Z,64.78
2023-02-27T05:01:17.127Z,63.97
2023-02-27T05:02:17.234Z,65.74
2023-02-27T05:03:17.098Z,65.10
2023-02-27T05:04:17.102Z,66.87
2023-02-27T05:05:17.083Z,63.81
2023-02-27T05:06:17.072Z,66.39
2023-02-27T05:07:17.066Z,65.26
2023-02-27T05:08:17.056Z,64.29
2023-02-27T05:09:17.052Z,64.13
2023-02-27T05:10:17.030Z,65.10
2023-02-27T05:11:17.020Z,64.29
2023-02-27T05:12:17.018Z,63.16
2023-02-27T05:13:17.011Z,66.55
2023-02-27T05:14:17.012Z,64.45
2023-02-27T05:15:16.988Z,64.94
2023-02-27T05:16:16.991Z,64.13
2023-02-27T05:17:16.975Z,63.33
2023-02-27T05:18:17.021Z,63.81
2023-02-27T05:19:17.107Z,65.42
2023-02-27T05:20:16.942Z,64.29
2023-02-27T05:21:16.936Z,62.04
2023-02-27T05:22:16.926Z,64.13
2023-02-27T05:23:16.922Z,65.58
2023-02-27T05:24:16.921Z,64.78
2023-02-27T05:25:16.902Z,65.26
2023-02-27T05:26:16.892Z,65.90
2023-02-27T05:27:16.878Z,65.90
2023-02-27T05:28:16.869Z,64.29
2023-02-27T05:29:17.877Z,63.81
2023-02-27T05:30:16.856Z,64.45
2023-02-27T05:31:16.887Z,62.84
2023-02-27T05:32:17.004Z,65.10
2023-02-27T05:33:16.825Z,62.36
2023-02-27T05:34:16.954Z,63.33
2023-02-27T05:35:16.808Z,64.13
2023-02-27T05:36:16.795Z,64.94
2023-02-27T05:37:16.787Z,63.81
2023-02-27T05:38:16.781Z,65.58
2023-02-27T05:39:16.778Z,64.94
2023-02-27T05:40:16.763Z,65.26
2023-02-27T05:41:16.757Z,65.58
2023-02-27T05:42:16.756Z,65.42
2023-02-27T05:43:16.749Z,64.78
2023-02-27T05:44:16.736Z,63.97
2023-02-27T05:45:16.715Z,63.33
2023-02-27T05:46:16.730Z,65.42
2023-02-27T05:47:16.693Z,64.78
2023-02-27T05:48:19.332Z,64.94
2023-02-27T05:49:16.696Z,63.49
2023-02-27T05:50:16.668Z,66.23
2023-02-27T05:51:16.667Z,62.68
2023-02-27T05:52:16.654Z,68.00
2023-02-27T05:53:16.643Z,65.10
2023-02-27T05:54:16.650Z,63.81
2023-02-27T05:55:18.836Z,63.81
2023-02-27T05:56:17.620Z,67.68
2023-02-27T05:57:16.603Z,65.90
2023-02-27T05:58:16.604Z,65.42
2023-02-27T05:59:16.600Z,64.13
2023-02-27T06:00:16.593Z,63.81
2023-02-27T06:01:16.571Z,63.97
2023-02-27T06:02:16.653Z,63.49
2023-02-27T06:03:16.581Z,65.58
2023-02-27T06:04:16.542Z,63.97
2023-02-27T06:05:16.559Z,63.97
2023-02-27T06:06:16.540Z,63.81
2023-02-27T06:07:16.520Z,65.58
2023-02-27T06:08:16.510Z,66.06
2023-02-27T06:09:16.515Z,66.06
2023-02-27T06:10:16.509Z,67.03
2023-02-27T06:11:16.486Z,64.94
2023-02-27T06:12:16.478Z,68.00
2023-02-27T06:13:16.501Z,64.78
2023-02-27T06:14:16.468Z,64.78
2023-02-27T06:15:16.462Z,62.68
2023-02-27T06:16:16.484Z,64.94
2023-02-27T06:17:16.438Z,63.49
2023-02-27T06:18:16.426Z,64.94
2023-02-27T06:19:16.422Z,63.49
2023-02-27T06:20:16.420Z,65.74
2023-02-27T06:21:16.404Z,64.78
2023-02-27T06:22:16.394Z,67.35
2023-02-27T06:23:16.383Z,63.00
2023-02-27T06:24:16.377Z,65.10
2023-02-27T06:25:16.375Z,65.10
2023-02-27T06:26:16.358Z,63.65
2023-02-27T06:27:16.347Z,65.42
2023-02-27T06:28:16.351Z,65.10
2023-02-27T06:29:16.325Z,65.26
2023-02-27T06:30:16.336Z,64.78
2023-02-27T06:31:16.368Z,63.33
2023-02-27T06:32:16.385Z,63.33
2023-02-27T06:33:16.292Z,65.26
2023-02-27T06:34:16.283Z,64.13
2023-02-27T06:35:16.287Z,67.03
2023-02-27T06:36:16.318Z,64.29
2023-02-27T06:37:16.259Z,63.49
2023-02-27T06:38:16.259Z,65.10
2023-02-27T06:39:16.253Z,65.42
2023-02-27T06:40:16.245Z,63.65
2023-02-27T06:41:16.228Z,63.49
2023-02-27T06:42:16.216Z,65.90
2023-02-27T06:43:16.206Z,63.81
2023-02-27T06:44:17.955Z,64.29
2023-02-27T06:45:16.240Z,65.42
2023-02-27T06:46:16.253Z,63.49
2023-02-27T06:47:16.167Z,63.65
2023-02-27T06:48:16.161Z,63.33
2023-02-27T06:49:16.147Z,63.81
2023-02-27T06:50:16.161Z,63.65
2023-02-27T06:51:16.135Z,64.78
2023-02-27T06:52:16.131Z,64.94
2023-02-27T06:53:16.113Z,64.61
2023-02-27T06:54:16.110Z,63.00
2023-02-27T06:55:16.103Z,63.00
2023-02-27T06:56:16.087Z,63.81
2023-02-27T06:57:16.075Z,65.58
2023-02-27T06:58:16.064Z,65.90
2023-02-27T06:59:16.062Z,64.29
2023-02-27T07:00:16.052Z,63.00
2023-02-27T07:01:16.087Z,63.65
2023-02-27T07:02:16.021Z,64.29
2023-02-27T07:03:16.065Z,63.97
2023-02-27T07:04:16.092Z,64.29
2023-02-27T07:05:16.016Z,64.13
2023-02-27T07:06:15.991Z,63.16
2023-02-27T07:07:35.710Z,63.16
2023-02-27T07:08:16.970Z,62.84
2023-02-27T07:09:15.956Z,63.16
2023-02-27T07:10:15.975Z,63.33
2023-02-27T07:11:15.941Z,63.33
2023-02-27T07:12:15.937Z,62.84
2023-02-27T07:13:18.436Z,63.33
2023-02-27T07:14:16.919Z,62.84
2023-02-27T07:15:15.916Z,62.36
2023-02-27T07:16:15.943Z,62.84
2023-02-27T07:17:15.897Z,63.33
2023-02-27T07:18:16.885Z,63.16
2023-02-27T07:19:15.901Z,63.65
2023-02-27T07:20:15.880Z,62.68
2023-02-27T07:21:15.856Z,63.00
2023-02-27T07:22:15.849Z,63.33
2023-02-27T07:23:15.843Z,63.00
2023-02-27T07:24:15.817Z,62.20
2023-02-27T07:25:16.837Z,63.33
2023-02-27T07:26:15.802Z,63.33
2023-02-27T07:27:15.803Z,63.97
2023-02-27T07:28:15.809Z,62.20
2023-02-27T07:29:15.780Z,62.52
2023-02-27T07:30:15.790Z,63.16
2023-02-27T07:31:15.842Z,62.36
2023-02-27T07:32:15.847Z,63.16
2023-02-27T07:33:15.741Z,62.52
2023-02-27T07:34:15.743Z,63.16
2023-02-27T07:35:15.744Z,62.84
2023-02-27T07:36:15.719Z,62.68
2023-02-27T07:37:15.711Z,63.00
2023-02-27T07:38:15.697Z,63.49
2023-02-27T07:39:15.693Z,62.36
2023-02-27T07:40:15.716Z,62.36
2023-02-27T07:41:29.480Z,62.36
2023-02-27T07:42:17.674Z,62.68
2023-02-27T07:43:16.661Z,63.00
2023-02-27T07:44:15.653Z,63.16
2023-02-27T07:45:15.659Z,63.65
2023-02-27T07:46:15.659Z,63.81
2023-02-27T07:47:15.622Z,62.84
2023-02-27T07:48:15.620Z,62.68
2023-02-27T07:49:15.636Z,63.16
2023-02-27T07:50:15.617Z,62.68
2023-02-27T07:51:15.593Z,63.33
2023-02-27T07:52:15.577Z,62.84
2023-02-27T07:53:15.566Z,63.97
2023-02-27T07:54:15.564Z,63.33
2023-02-27T07:55:15.567Z,63.49
2023-02-27T07:56:15.544Z,62.68
2023-02-27T07:57:15.534Z,63.16
2023-02-27T07:58:15.530Z,62.84
2023-02-27T07:59:15.519Z,64.29
2023-02-27T08:00:15.525Z,64.61
2023-02-27T08:01:15.505Z,62.84
2023-02-27T08:02:15.492Z,65.58
2023-02-27T08:03:15.492Z,63.97
2023-02-27T08:04:15.494Z,64.78
2023-02-27T08:05:15.482Z,66.06
2023-02-27T08:06:15.458Z,63.16
2023-02-27T08:07:15.453Z,63.33
2023-02-27T08:08:15.446Z,66.23
2023-02-27T08:09:15.426Z,63.16
2023-02-27T08:10:15.429Z,64.61
2023-02-27T08:11:16.413Z,63.33
2023-02-27T08:12:15.408Z,63.81
2023-02-27T08:13:17.911Z,62.20
2023-02-27T08:14:16.394Z,63.00
2023-02-27T08:15:15.388Z,63.97
2023-02-27T08:16:15.400Z,65.42
2023-02-27T08:17:16.361Z,63.49
2023-02-27T08:18:15.353Z,64.29
2023-02-27T08:19:15.345Z,64.61
2023-02-27T08:20:15.354Z,66.23
2023-02-27T08:21:15.326Z,65.74
2023-02-27T08:22:15.325Z,64.78
2023-02-27T08:23:15.307Z,65.26
2023-02-27T08:24:15.317Z,63.33
2023-02-27T08:25:15.309Z,64.13
2023-02-27T08:26:15.291Z,64.94
2023-02-27T08:27:15.282Z,63.81
2023-02-27T08:28:15.262Z,65.10
2023-02-27T08:29:17.002Z,65.26
2023-02-27T08:30:16.257Z,65.10
2023-02-27T08:31:15.256Z,65.74
2023-02-27T08:32:15.346Z,65.10
2023-02-27T08:33:15.233Z,64.94
2023-02-27T08:34:15.207Z,65.26
2023-02-27T08:35:15.219Z,64.13
2023-02-27T08:36:15.187Z,64.29
2023-02-27T08:37:15.183Z,64.61
2023-02-27T08:38:15.173Z,66.87
2023-02-27T08:39:15.171Z,65.90
2023-02-27T08:40:15.176Z,65.26
2023-02-27T08:41:15.146Z,65.26
2023-02-27T08:42:15.138Z,67.19
2023-02-27T08:43:15.128Z,67.51
2023-02-27T08:44:15.123Z,67.19
2023-02-27T08:45:15.128Z,67.68
2023-02-27T08:46:15.159Z,66.06
2023-02-27T08:47:15.100Z,68.48
2023-02-27T08:48:15.088Z,67.51
2023-02-27T08:49:15.090Z,69.93
2023-02-27T08:50:15.092Z,68.16
2023-02-27T08:51:15.060Z,64.29
2023-02-27T08:52:15.058Z,65.26
2023-02-27T08:53:15.043Z,65.90
2023-02-27T08:54:15.036Z,66.55
2023-02-27T08:55:15.034Z,65.26
2023-02-27T08:56:15.024Z,67.19
2023-02-27T08:57:15.007Z,66.87
2023-02-27T08:58:16.994Z,66.87
2023-02-27T08:59:15.005Z,68.32
2023-02-27T09:00:15.056Z,68.32
2023-02-27T09:01:15.060Z,68.00
2023-02-27T09:02:14.969Z,67.84
2023-02-27T09:03:14.970Z,67.19
2023-02-27T09:04:14.957Z,67.19
2023-02-27T09:05:14.946Z,67.35
2023-02-27T09:06:14.944Z,66.06
2023-02-27T09:07:14.925Z,66.23
2023-02-27T09:08:14.916Z,66.71
2023-02-27T09:09:14.939Z,66.87
2023-02-27T09:10:14.897Z,67.19
2023-02-27T09:11:15.066Z,67.03
2023-02-27T09:12:14.881Z,67.68
2023-02-27T09:13:14.867Z,68.64
2023-02-27T09:14:14.891Z,68.32
2023-02-27T09:15:14.873Z,68.64
2023-02-27T09:16:14.880Z,68.48
2023-02-27T09:17:14.844Z,66.71
2023-02-27T09:18:14.829Z,65.42
2023-02-27T09:19:14.825Z,67.35
2023-02-27T09:20:14.809Z,67.35
2023-02-27T09:21:14.824Z,67.68
2023-02-27T09:22:14.804Z,67.03
2023-02-27T09:23:14.781Z,67.35
2023-02-27T09:24:20.195Z,69.29
2023-02-27T09:25:16.766Z,68.32
2023-02-27T09:26:14.781Z,68.16
2023-02-27T09:27:14.760Z,68.48
2023-02-27T09:28:14.759Z,68.64
2023-02-27T09:29:14.730Z,66.23
2023-02-27T09:30:14.726Z,66.39
2023-02-27T09:31:14.751Z,68.16
2023-02-27T09:32:14.802Z,67.68
2023-02-27T09:33:14.718Z,68.64
2023-02-27T09:34:14.702Z,68.96
2023-02-27T09:35:14.681Z,68.00
2023-02-27T09:36:14.690Z,69.29
2023-02-27T09:37:14.665Z,69.93
2023-02-27T09:38:14.663Z,68.16
2023-02-27T09:39:14.650Z,66.23
2023-02-27T09:40:14.641Z,68.16
2023-02-27T09:41:14.639Z,71.06
2023-02-27T09:42:14.623Z,68.00
2023-02-27T09:43:14.701Z,67.68
2023-02-27T09:44:14.604Z,67.84
2023-02-27T09:45:14.603Z,68.80
2023-02-27T09:46:14.675Z,72.03
2023-02-27T09:47:14.586Z,69.61
2023-02-27T09:48:14.563Z,68.80
2023-02-27T09:49:15.563Z,68.16
2023-02-27T09:50:14.567Z,68.16
2023-02-27T09:51:14.576Z,65.90
2023-02-27T09:52:14.540Z,65.90
2023-02-27T09:53:14.541Z,69.61
2023-02-27T09:54:14.529Z,67.51
2023-02-27T09:55:14.512Z,63.97
2023-02-27T09:56:14.512Z,64.61
2023-02-27T09:57:14.496Z,68.80
2023-02-27T09:58:14.499Z,69.29
2023-02-27T09:59:14.490Z,69.29
2023-02-27T10:00:14.466Z,67.84
2023-02-27T10:01:14.512Z,66.06
2023-02-27T10:02:14.466Z,66.23
2023-02-27T10:03:14.510Z,68.32
2023-02-27T10:04:14.432Z,68.96
2023-02-27T10:05:14.425Z,68.00
2023-02-27T10:06:14.430Z,68.00
2023-02-27T10:07:14.404Z,68.96
2023-02-27T10:08:14.423Z,67.84
2023-02-27T10:09:14.393Z,69.77
2023-02-27T10:10:14.379Z,68.16
2023-02-27T10:11:14.390Z,66.87
2023-02-27T10:12:14.368Z,68.48
2023-02-27T10:13:14.357Z,70.25
2023-02-27T10:14:14.353Z,69.77
2023-02-27T10:15:14.351Z,69.13
2023-02-27T10:16:14.362Z,68.80
2023-02-27T10:17:14.323Z,68.64
2023-02-27T10:18:26.026Z,68.64
2023-02-27T10:19:16.322Z,70.90
2023-02-27T10:20:14.299Z,69.29
2023-02-27T10:21:14.318Z,69.77
2023-02-27T10:22:14.285Z,69.13
2023-02-27T10:23:14.270Z,68.00
2023-02-27T10:24:14.264Z,68.32
2023-02-27T10:25:29.821Z,67.84
2023-02-27T10:26:16.257Z,68.96
2023-02-27T10:27:14.250Z,66.87
2023-02-27T10:28:14.266Z,65.74
2023-02-27T10:29:14.243Z,68.00
2023-02-27T10:30:20.206Z,68.16
2023-02-27T10:31:16.274Z,68.80
2023-02-27T10:32:14.286Z,70.25
2023-02-27T10:33:14.210Z,67.68
2023-02-27T10:34:14.181Z,71.22
2023-02-27T10:35:14.173Z,68.96
2023-02-27T10:36:30.660Z,68.64
2023-02-27T10:37:16.164Z,69.13
2023-02-27T10:38:14.145Z,69.77
2023-02-27T10:39:14.145Z,69.13
2023-02-27T10:40:14.133Z,68.80
2023-02-27T10:41:14.132Z,70.09
2023-02-27T10:42:14.115Z,69.29
2023-02-27T10:43:14.105Z,70.90
2023-02-27T10:44:14.478Z,70.09
2023-02-27T10:45:14.090Z,68.64
2023-02-27T10:46:14.118Z,69.29
2023-02-27T10:47:14.086Z,70.25
2023-02-27T10:48:14.059Z,71.70
2023-02-27T10:49:14.048Z,72.03
2023-02-27T10:50:14.047Z,68.32
2023-02-27T10:51:14.045Z,69.13
2023-02-27T10:52:14.053Z,70.25
2023-02-27T10:53:14.020Z,67.84
2023-02-27T10:54:14.030Z,69.77
2023-02-27T10:55:13.999Z,68.32
2023-02-27T10:56:14.003Z,68.64
2023-02-27T10:57:13.982Z,67.03
2023-02-27T10:58:13.984Z,66.39
2023-02-27T10:59:13.968Z,67.35
2023-02-27T11:00:13.954Z,69.77
2023-02-27T11:01:14.004Z,67.51
2023-02-27T11:02:13.937Z,69.77
2023-02-27T11:03:13.929Z,71.38
2023-02-27T11:04:13.971Z,68.32
2023-02-27T11:05:13.913Z,67.84
2023-02-27T11:06:13.916Z,68.16
2023-02-27T11:07:13.925Z,70.74
2023-02-27T11:08:13.888Z,68.64
2023-02-27T11:09:13.875Z,70.42
2023-02-27T11:10:13.869Z,69.77
2023-02-27T11:11:14.083Z,67.19
2023-02-27T11:12:13.862Z,67.84
2023-02-27T11:13:13.865Z,67.84
2023-02-27T11:14:13.858Z,67.35
2023-02-27T11:15:13.843Z,70.09
2023-02-27T11:16:13.898Z,70.42
2023-02-27T11:17:13.808Z,69.13
2023-02-27T11:18:13.802Z,68.32
2023-02-27T11:19:14.556Z,69.29
2023-02-27T11:20:14.787Z,68.64
2023-02-27T11:21:13.788Z,68.80
2023-02-27T11:22:13.766Z,69.77
2023-02-27T11:23:13.768Z,68.96
2023-02-27T11:24:13.763Z,70.74
2023-02-27T11:25:13.748Z,70.09
2023-02-27T11:26:13.749Z,70.25
2023-02-27T11:27:13.729Z,71.54
2023-02-27T11:28:13.725Z,71.06
2023-02-27T11:29:13.713Z,68.80
2023-02-27T11:30:14.897Z,70.25
2023-02-27T11:31:13.772Z,69.29
2023-02-27T11:32:13.895Z,68.32
2023-02-27T11:33:13.689Z,72.03
2023-02-27T11:34:13.677Z,70.74
2023-02-27T11:36:25.213Z,68.80
2023-02-27T11:37:25.197Z,69.13
2023-02-27T11:38:25.186Z,70.09
2023-02-27T11:39:25.179Z,69.77
2023-02-27T11:40:25.166Z,72.51
2023-02-27T11:41:25.179Z,70.09
2023-02-27T11:42:25.156Z,69.93
2023-02-27T11:43:25.144Z,69.45
2023-02-27T11:44:50.216Z,70.42
2023-02-27T11:46:04.275Z,70.42
2023-02-27T11:46:47.417Z,70.58
2023-02-27T11:47:26.132Z,71.70
2023-02-27T11:48:25.105Z,68.48
2023-02-27T11:49:25.091Z,69.93
2023-02-27T11:50:25.090Z,70.90
2023-02-27T11:51:25.421Z,69.77
2023-02-27T11:52:25.057Z,68.80
2023-02-27T11:53:25.058Z,68.96
2023-02-27T11:54:25.041Z,69.13
2023-02-27T11:55:25.039Z,70.74
2023-02-27T11:56:25.045Z,68.32
2023-02-27T11:57:25.055Z,68.48
2023-02-27T11:58:25.013Z,70.09
2023-02-27T11:59:26.120Z,68.16
2023-02-27T12:00:26.125Z,69.29
2023-02-27T12:01:26.356Z,70.42
2023-02-27T12:02:26.118Z,68.80
2023-02-27T12:03:26.081Z,69.29
2023-02-27T12:04:26.085Z,68.32
2023-02-27T12:05:26.066Z,70.09
2023-02-27T12:06:26.079Z,71.70
2023-02-27T12:07:26.045Z,69.61
2023-02-27T12:08:26.045Z,70.42
2023-02-27T12:09:26.026Z,70.09
2023-02-27T12:10:26.036Z,72.83
2023-02-27T12:11:26.022Z,71.54
2023-02-27T12:12:26.009Z,71.87
2023-02-27T12:13:25.995Z,70.09
2023-02-27T12:14:26.000Z,70.90
2023-02-27T12:15:25.979Z,69.45
2023-02-27T12:16:26.614Z,71.87
2023-02-27T12:17:25.957Z,72.19
2023-02-27T12:18:25.950Z,72.67
2023-02-27T12:19:25.957Z,71.06
2023-02-27T12:20:26.932Z,69.45
2023-02-27T12:21:25.929Z,69.45
2023-02-27T12:22:25.915Z,70.74
2023-02-27T12:23:25.929Z,72.03
2023-02-27T12:24:25.898Z,70.58
2023-02-27T12:25:25.896Z,72.51
2023-02-27T12:26:26.273Z,71.87
2023-02-27T12:27:25.902Z,70.42
2023-02-27T12:28:25.862Z,71.54
2023-02-27T12:29:25.880Z,70.90
2023-02-27T12:30:25.842Z,69.61
2023-02-27T12:31:26.126Z,74.28
2023-02-27T12:32:25.969Z,71.06
2023-02-27T12:33:25.827Z,70.25
2023-02-27T12:34:25.803Z,71.70
2023-02-27T12:35:25.851Z,72.19
2023-02-27T12:36:25.795Z,72.51
2023-02-27T12:37:25.795Z,70.90
2023-02-27T12:38:25.771Z,70.90
2023-02-27T12:39:25.759Z,70.09
2023-02-27T12:40:25.758Z,68.32
2023-02-27T12:41:26.020Z,70.09
2023-02-27T12:42:25.755Z,69.45
2023-02-27T12:43:25.722Z,70.42
2023-02-27T12:44:25.718Z,70.42
2023-02-27T12:45:25.734Z,71.06
2023-02-27T12:46:25.699Z,69.61
2023-02-27T12:47:25.719Z,70.42
2023-02-27T12:48:25.678Z,70.90
2023-02-27T12:49:25.673Z,69.45
2023-02-27T12:50:25.655Z,73.15
2023-02-27T12:51:26.959Z,69.77
2023-02-27T12:52:25.654Z,70.42
2023-02-27T12:53:25.652Z,71.54